sensor_id;sensor_type;location;lat;lon;timestamp;P1;durP1;ratioP1;P2;durP2;ratioP2
74102;SDS011;62853;46.166;3.640;2023-05-07T00:02:22;13.95;;;12.75;;
74102;SDS011;62853;46.166;3.640;2023-05-07T00:04:50;15.05;;;13.52;;
74102;SDS011;62853;46.166;3.640;2023-05-07T00:07:17;15.55;;;13.98;;
74102;SDS011;62853;46.166;3.640;2023-05-07T00:09:42;16.70;;;15.10;;
74102;SDS011;62853;46.166;3.640;2023-05-07T00:12:08;15.75;;;14.45;;
74102;SDS011;62853;46.166;3.640;2023-05-07T00:14:33;15.07;;;13.88;;
74102;SDS011;62853;46.166;3.640;2023-05-07T00:16:58;16.60;;;14.98;;
74102;SDS011;62853;46.166;3.640;2023-05-07T00:19:24;16.58;;;15.07;;
74102;SDS011;62853;46.166;3.640;2023-05-07T00:21:49;16.65;;;15.15;;
74102;SDS011;62853;46.166;3.640;2023-05-07T00:24:17;17.08;;;15.48;;
74102;SDS011;62853;46.166;3.640;2023-05-07T00:26:45;17.02;;;15.63;;
74102;SDS011;62853;46.166;3.640;2023-05-07T00:29:11;17.40;;;15.68;;
74102;SDS011;62853;46.166;3.640;2023-05-07T00:31:39;17.85;;;16.08;;
74102;SDS011;62853;46.166;3.640;2023-05-07T00:34:04;18.05;;;16.35;;
74102;SDS011;62853;46.166;3.640;2023-05-07T00:36:33;18.85;;;16.98;;
74102;SDS011;62853;46.166;3.640;2023-05-07T00:38:59;18.98;;;17.33;;
74102;SDS011;62853;46.166;3.640;2023-05-07T00:41:27;18.73;;;17.00;;
74102;SDS011;62853;46.166;3.640;2023-05-07T00:43:52;18.30;;;16.67;;
74102;SDS011;62853;46.166;3.640;2023-05-07T00:46:19;18.60;;;16.88;;
74102;SDS011;62853;46.166;3.640;2023-05-07T00:48:48;19.40;;;17.52;;
74102;SDS011;62853;46.166;3.640;2023-05-07T00:51:15;18.52;;;16.75;;
74102;SDS011;62853;46.166;3.640;2023-05-07T00:53:42;17.33;;;15.73;;
74102;SDS011;62853;46.166;3.640;2023-05-07T00:56:08;18.35;;;16.75;;
74102;SDS011;62853;46.166;3.640;2023-05-07T00:58:33;18.42;;;16.80;;
74102;SDS011;62853;46.166;3.640;2023-05-07T01:01:02;19.17;;;17.58;;
74102;SDS011;62853;46.166;3.640;2023-05-07T01:03:30;17.60;;;15.90;;
74102;SDS011;62853;46.166;3.640;2023-05-07T01:05:55;20.48;;;18.67;;
74102;SDS011;62853;46.166;3.640;2023-05-07T01:08:23;22.25;;;20.05;;
74102;SDS011;62853;46.166;3.640;2023-05-07T01:10:54;20.67;;;18.88;;
74102;SDS011;62853;46.166;3.640;2023-05-07T01:13:25;20.42;;;18.73;;
74102;SDS011;62853;46.166;3.640;2023-05-07T01:15:52;19.60;;;17.95;;
74102;SDS011;62853;46.166;3.640;2023-05-07T01:18:18;21.20;;;19.00;;
74102;SDS011;62853;46.166;3.640;2023-05-07T01:20:46;20.58;;;18.77;;
74102;SDS011;62853;46.166;3.640;2023-05-07T01:23:12;19.02;;;17.48;;
74102;SDS011;62853;46.166;3.640;2023-05-07T01:25:38;21.50;;;19.30;;
74102;SDS011;62853;46.166;3.640;2023-05-07T01:28:03;20.13;;;18.30;;
74102;SDS011;62853;46.166;3.640;2023-05-07T01:30:31;20.17;;;18.48;;
74102;SDS011;62853;46.166;3.640;2023-05-07T01:33:02;20.42;;;18.65;;
74102;SDS011;62853;46.166;3.640;2023-05-07T01:35:36;22.35;;;20.15;;
74102;SDS011;62853;46.166;3.640;2023-05-07T01:38:04;22.83;;;20.67;;
74102;SDS011;62853;46.166;3.640;2023-05-07T01:40:31;24.48;;;22.35;;
74102;SDS011;62853;46.166;3.640;2023-05-07T01:43:00;25.42;;;23.02;;
74102;SDS011;62853;46.166;3.640;2023-05-07T01:45:27;24.02;;;21.83;;
74102;SDS011;62853;46.166;3.640;2023-05-07T01:47:53;22.83;;;20.90;;
74102;SDS011;62853;46.166;3.640;2023-05-07T01:50:20;23.75;;;21.45;;
74102;SDS011;62853;46.166;3.640;2023-05-07T01:52:46;24.63;;;22.45;;
74102;SDS011;62853;46.166;3.640;2023-05-07T01:55:12;27.75;;;25.05;;
74102;SDS011;62853;46.166;3.640;2023-05-07T01:57:40;28.13;;;25.63;;
74102;SDS011;62853;46.166;3.640;2023-05-07T02:00:06;28.42;;;25.70;;
74102;SDS011;62853;46.166;3.640;2023-05-07T02:02:35;28.73;;;25.98;;
74102;SDS011;62853;46.166;3.640;2023-05-07T02:05:03;26.83;;;24.13;;
74102;SDS011;62853;46.166;3.640;2023-05-07T02:07:29;25.55;;;23.35;;
74102;SDS011;62853;46.166;3.640;2023-05-07T02:09:54;28.38;;;25.65;;
74102;SDS011;62853;46.166;3.640;2023-05-07T02:12:20;28.10;;;25.50;;
74102;SDS011;62853;46.166;3.640;2023-05-07T02:14:48;29.02;;;26.42;;
74102;SDS011;62853;46.166;3.640;2023-05-07T02:17:14;28.58;;;26.10;;
74102;SDS011;62853;46.166;3.640;2023-05-07T02:19:40;30.33;;;27.50;;
74102;SDS011;62853;46.166;3.640;2023-05-07T02:22:09;28.40;;;26.00;;
74102;SDS011;62853;46.166;3.640;2023-05-07T02:24:35;31.35;;;28.45;;
74102;SDS011;62853;46.166;3.640;2023-05-07T02:27:00;33.60;;;30.40;;
74102;SDS011;62853;46.166;3.640;2023-05-07T02:29:28;34.90;;;31.45;;
74102;SDS011;62853;46.166;3.640;2023-05-07T02:31:56;34.60;;;31.30;;
74102;SDS011;62853;46.166;3.640;2023-05-07T02:34:22;33.50;;;30.55;;
74102;SDS011;62853;46.166;3.640;2023-05-07T02:36:47;33.83;;;30.52;;
74102;SDS011;62853;46.166;3.640;2023-05-07T02:39:13;34.42;;;31.15;;
74102;SDS011;62853;46.166;3.640;2023-05-07T02:41:38;35.92;;;32.42;;
74102;SDS011;62853;46.166;3.640;2023-05-07T02:44:04;37.67;;;33.70;;
74102;SDS011;62853;46.166;3.640;2023-05-07T02:46:32;39.05;;;35.05;;
74102;SDS011;62853;46.166;3.640;2023-05-07T02:48:58;37.25;;;33.70;;
74102;SDS011;62853;46.166;3.640;2023-05-07T02:51:25;39.08;;;35.47;;
74102;SDS011;62853;46.166;3.640;2023-05-07T02:53:51;39.28;;;35.45;;
74102;SDS011;62853;46.166;3.640;2023-05-07T02:56:18;38.90;;;35.08;;
74102;SDS011;62853;46.166;3.640;2023-05-07T02:58:44;39.28;;;35.55;;
74102;SDS011;62853;46.166;3.640;2023-05-07T03:01:09;40.10;;;36.28;;
74102;SDS011;62853;46.166;3.640;2023-05-07T03:03:35;39.03;;;35.20;;
74102;SDS011;62853;46.166;3.640;2023-05-07T03:06:01;41.80;;;37.85;;
74102;SDS011;62853;46.166;3.640;2023-05-07T03:08:26;40.75;;;37.05;;
74102;SDS011;62853;46.166;3.640;2023-05-07T03:10:52;44.15;;;39.83;;
74102;SDS011;62853;46.166;3.640;2023-05-07T03:13:17;40.42;;;36.63;;
74102;SDS011;62853;46.166;3.640;2023-05-07T03:15:43;42.17;;;38.00;;
74102;SDS011;62853;46.166;3.640;2023-05-07T03:18:08;43.55;;;39.35;;
74102;SDS011;62853;46.166;3.640;2023-05-07T03:20:34;41.63;;;37.72;;
74102;SDS011;62853;46.166;3.640;2023-05-07T03:23:01;42.75;;;38.67;;
74102;SDS011;62853;46.166;3.640;2023-05-07T03:25:27;42.35;;;38.35;;
74102;SDS011;62853;46.166;3.640;2023-05-07T03:27:52;44.67;;;40.45;;
74102;SDS011;62853;46.166;3.640;2023-05-07T03:30:18;41.70;;;37.67;;
74102;SDS011;62853;46.166;3.640;2023-05-07T03:32:43;42.55;;;38.75;;
74102;SDS011;62853;46.166;3.640;2023-05-07T03:35:09;41.80;;;37.85;;
74102;SDS011;62853;46.166;3.640;2023-05-07T03:37:34;43.17;;;39.05;;
74102;SDS011;62853;46.166;3.640;2023-05-07T03:40:00;42.67;;;38.75;;
74102;SDS011;62853;46.166;3.640;2023-05-07T03:42:25;40.65;;;37.00;;
74102;SDS011;62853;46.166;3.640;2023-05-07T03:44:51;44.08;;;39.80;;
74102;SDS011;62853;46.166;3.640;2023-05-07T03:47:16;44.17;;;39.95;;
74102;SDS011;62853;46.166;3.640;2023-05-07T03:49:42;42.75;;;38.78;;
74102;SDS011;62853;46.166;3.640;2023-05-07T03:52:07;43.10;;;39.00;;
74102;SDS011;62853;46.166;3.640;2023-05-07T03:54:32;43.95;;;39.70;;
74102;SDS011;62853;46.166;3.640;2023-05-07T03:56:58;43.88;;;39.50;;
74102;SDS011;62853;46.166;3.640;2023-05-07T03:59:23;45.67;;;41.13;;
74102;SDS011;62853;46.166;3.640;2023-05-07T04:01:49;47.50;;;42.55;;
74102;SDS011;62853;46.166;3.640;2023-05-07T04:04:14;46.58;;;42.17;;
74102;SDS011;62853;46.166;3.640;2023-05-07T04:06:43;45.90;;;41.60;;
74102;SDS011;62853;46.166;3.640;2023-05-07T04:09:08;46.47;;;41.88;;
74102;SDS011;62853;46.166;3.640;2023-05-07T04:11:34;45.95;;;41.60;;
74102;SDS011;62853;46.166;3.640;2023-05-07T04:14:00;46.35;;;41.50;;
74102;SDS011;62853;46.166;3.640;2023-05-07T04:16:26;44.88;;;40.38;;
74102;SDS011;62853;46.166;3.640;2023-05-07T04:18:51;47.20;;;42.65;;
74102;SDS011;62853;46.166;3.640;2023-05-07T04:21:17;46.45;;;42.08;;
74102;SDS011;62853;46.166;3.640;2023-05-07T04:23:45;45.17;;;40.83;;
74102;SDS011;62853;46.166;3.640;2023-05-07T04:26:11;44.40;;;40.38;;
74102;SDS011;62853;46.166;3.640;2023-05-07T04:28:36;45.40;;;41.15;;
74102;SDS011;62853;46.166;3.640;2023-05-07T04:31:02;45.85;;;41.55;;
74102;SDS011;62853;46.166;3.640;2023-05-07T04:33:27;48.45;;;43.75;;
74102;SDS011;62853;46.166;3.640;2023-05-07T04:35:52;44.80;;;40.72;;
74102;SDS011;62853;46.166;3.640;2023-05-07T04:38:18;47.58;;;43.17;;
74102;SDS011;62853;46.166;3.640;2023-05-07T04:40:44;48.65;;;43.83;;
74102;SDS011;62853;46.166;3.640;2023-05-07T04:43:09;48.05;;;43.35;;
74102;SDS011;62853;46.166;3.640;2023-05-07T04:45:35;47.90;;;43.20;;
74102;SDS011;62853;46.166;3.640;2023-05-07T04:48:01;46.05;;;41.75;;
74102;SDS011;62853;46.166;3.640;2023-05-07T04:50:27;46.05;;;41.78;;
74102;SDS011;62853;46.166;3.640;2023-05-07T04:52:52;48.40;;;43.70;;
74102;SDS011;62853;46.166;3.640;2023-05-07T04:55:17;48.67;;;43.88;;
74102;SDS011;62853;46.166;3.640;2023-05-07T04:57:43;50.42;;;45.40;;
74102;SDS011;62853;46.166;3.640;2023-05-07T05:00:08;47.72;;;42.95;;
74102;SDS011;62853;46.166;3.640;2023-05-07T05:02:34;49.38;;;44.75;;
74102;SDS011;62853;46.166;3.640;2023-05-07T05:05:00;48.22;;;43.70;;
74102;SDS011;62853;46.166;3.640;2023-05-07T05:07:29;48.17;;;43.72;;
74102;SDS011;62853;46.166;3.640;2023-05-07T05:09:54;48.28;;;43.55;;
74102;SDS011;62853;46.166;3.640;2023-05-07T05:12:20;47.95;;;43.40;;
74102;SDS011;62853;46.166;3.640;2023-05-07T05:14:45;48.50;;;43.97;;
74102;SDS011;62853;46.166;3.640;2023-05-07T05:17:11;47.90;;;43.50;;
74102;SDS011;62853;46.166;3.640;2023-05-07T05:19:36;46.55;;;42.17;;
74102;SDS011;62853;46.166;3.640;2023-05-07T05:22:02;49.15;;;44.33;;
74102;SDS011;62853;46.166;3.640;2023-05-07T05:24:28;50.00;;;45.00;;
74102;SDS011;62853;46.166;3.640;2023-05-07T05:26:54;48.42;;;43.83;;
74102;SDS011;62853;46.166;3.640;2023-05-07T05:29:27;48.60;;;43.92;;
74102;SDS011;62853;46.166;3.640;2023-05-07T05:31:52;47.58;;;43.17;;
74102;SDS011;62853;46.166;3.640;2023-05-07T05:34:20;46.38;;;42.15;;
74102;SDS011;62853;46.166;3.640;2023-05-07T05:36:46;48.28;;;43.35;;
74102;SDS011;62853;46.166;3.640;2023-05-07T05:39:12;45.55;;;41.20;;
74102;SDS011;62853;46.166;3.640;2023-05-07T05:41:37;48.42;;;43.75;;
74102;SDS011;62853;46.166;3.640;2023-05-07T05:44:03;47.17;;;42.72;;
74102;SDS011;62853;46.166;3.640;2023-05-07T05:46:28;47.63;;;43.00;;
74102;SDS011;62853;46.166;3.640;2023-05-07T05:48:53;47.70;;;43.03;;
74102;SDS011;62853;46.166;3.640;2023-05-07T05:51:20;46.20;;;41.83;;
74102;SDS011;62853;46.166;3.640;2023-05-07T05:53:46;44.20;;;40.08;;
74102;SDS011;62853;46.166;3.640;2023-05-07T05:56:11;46.42;;;42.00;;
74102;SDS011;62853;46.166;3.640;2023-05-07T05:58:36;41.47;;;37.67;;
74102;SDS011;62853;46.166;3.640;2023-05-07T06:01:02;40.55;;;36.95;;
74102;SDS011;62853;46.166;3.640;2023-05-07T06:03:28;42.30;;;38.50;;
74102;SDS011;62853;46.166;3.640;2023-05-07T06:05:53;41.03;;;36.97;;
74102;SDS011;62853;46.166;3.640;2023-05-07T06:08:18;39.75;;;36.00;;
74102;SDS011;62853;46.166;3.640;2023-05-07T06:10:44;40.53;;;36.55;;
74102;SDS011;62853;46.166;3.640;2023-05-07T06:13:10;39.00;;;35.30;;
74102;SDS011;62853;46.166;3.640;2023-05-07T06:15:35;38.10;;;34.60;;
74102;SDS011;62853;46.166;3.640;2023-05-07T06:18:00;38.75;;;35.03;;
74102;SDS011;62853;46.166;3.640;2023-05-07T06:20:26;37.67;;;33.95;;
74102;SDS011;62853;46.166;3.640;2023-05-07T06:22:51;36.20;;;32.58;;
74102;SDS011;62853;46.166;3.640;2023-05-07T06:25:19;36.38;;;32.97;;
74102;SDS011;62853;46.166;3.640;2023-05-07T06:27:45;36.38;;;32.60;;
74102;SDS011;62853;46.166;3.640;2023-05-07T06:30:10;36.35;;;33.05;;
74102;SDS011;62853;46.166;3.640;2023-05-07T06:32:36;32.88;;;29.70;;
74102;SDS011;62853;46.166;3.640;2023-05-07T06:35:01;34.55;;;31.17;;
74102;SDS011;62853;46.166;3.640;2023-05-07T06:37:27;34.95;;;31.38;;
74102;SDS011;62853;46.166;3.640;2023-05-07T06:39:52;30.88;;;27.88;;
74102;SDS011;62853;46.166;3.640;2023-05-07T06:42:17;32.13;;;28.92;;
74102;SDS011;62853;46.166;3.640;2023-05-07T06:44:43;33.00;;;30.05;;
74102;SDS011;62853;46.166;3.640;2023-05-07T06:47:08;31.45;;;28.58;;
74102;SDS011;62853;46.166;3.640;2023-05-07T06:49:34;30.83;;;27.95;;
74102;SDS011;62853;46.166;3.640;2023-05-07T06:51:59;31.23;;;28.25;;
74102;SDS011;62853;46.166;3.640;2023-05-07T06:54:24;31.92;;;28.65;;
74102;SDS011;62853;46.166;3.640;2023-05-07T06:56:50;30.88;;;27.88;;
74102;SDS011;62853;46.166;3.640;2023-05-07T06:59:15;31.10;;;28.00;;
74102;SDS011;62853;46.166;3.640;2023-05-07T07:01:41;28.52;;;25.95;;
74102;SDS011;62853;46.166;3.640;2023-05-07T07:04:06;29.77;;;26.70;;
74102;SDS011;62853;46.166;3.640;2023-05-07T07:06:31;29.42;;;26.40;;
74102;SDS011;62853;46.166;3.640;2023-05-07T07:08:59;29.83;;;26.88;;
74102;SDS011;62853;46.166;3.640;2023-05-07T07:11:25;30.70;;;27.45;;
74102;SDS011;62853;46.166;3.640;2023-05-07T07:13:50;30.77;;;27.63;;
74102;SDS011;62853;46.166;3.640;2023-05-07T07:16:16;30.95;;;28.02;;
74102;SDS011;62853;46.166;3.640;2023-05-07T07:18:42;31.25;;;28.13;;
74102;SDS011;62853;46.166;3.640;2023-05-07T07:21:07;30.30;;;27.42;;
74102;SDS011;62853;46.166;3.640;2023-05-07T07:23:32;31.08;;;28.27;;
74102;SDS011;62853;46.166;3.640;2023-05-07T07:25:58;30.02;;;27.23;;
74102;SDS011;62853;46.166;3.640;2023-05-07T07:28:23;28.88;;;26.08;;
74102;SDS011;62853;46.166;3.640;2023-05-07T07:30:49;27.38;;;24.67;;
74102;SDS011;62853;46.166;3.640;2023-05-07T07:33:14;28.90;;;26.10;;
74102;SDS011;62853;46.166;3.640;2023-05-07T07:35:40;29.15;;;26.30;;
74102;SDS011;62853;46.166;3.640;2023-05-07T07:38:06;27.92;;;25.35;;
74102;SDS011;62853;46.166;3.640;2023-05-07T07:40:31;29.35;;;26.35;;
74102;SDS011;62853;46.166;3.640;2023-05-07T07:43:00;28.10;;;25.33;;
74102;SDS011;62853;46.166;3.640;2023-05-07T07:45:26;27.48;;;24.80;;
74102;SDS011;62853;46.166;3.640;2023-05-07T07:47:51;27.42;;;24.92;;
74102;SDS011;62853;46.166;3.640;2023-05-07T07:50:17;27.05;;;24.48;;
74102;SDS011;62853;46.166;3.640;2023-05-07T07:52:43;28.05;;;25.20;;
74102;SDS011;62853;46.166;3.640;2023-05-07T07:55:08;27.27;;;24.75;;
74102;SDS011;62853;46.166;3.640;2023-05-07T07:57:34;27.30;;;24.58;;
74102;SDS011;62853;46.166;3.640;2023-05-07T07:59:59;26.25;;;23.42;;
74102;SDS011;62853;46.166;3.640;2023-05-07T08:02:25;26.13;;;23.60;;
74102;SDS011;62853;46.166;3.640;2023-05-07T08:04:51;26.17;;;23.67;;
74102;SDS011;62853;46.166;3.640;2023-05-07T08:07:16;25.85;;;23.38;;
74102;SDS011;62853;46.166;3.640;2023-05-07T08:09:45;27.30;;;24.58;;
74102;SDS011;62853;46.166;3.640;2023-05-07T08:12:11;25.67;;;23.13;;
74102;SDS011;62853;46.166;3.640;2023-05-07T08:14:36;25.52;;;23.10;;
74102;SDS011;62853;46.166;3.640;2023-05-07T08:17:02;25.55;;;23.15;;
74102;SDS011;62853;46.166;3.640;2023-05-07T08:19:27;24.65;;;22.17;;
74102;SDS011;62853;46.166;3.640;2023-05-07T08:21:52;22.38;;;20.33;;
74102;SDS011;62853;46.166;3.640;2023-05-07T08:24:20;22.95;;;20.70;;
74102;SDS011;62853;46.166;3.640;2023-05-07T08:26:46;22.27;;;20.10;;
74102;SDS011;62853;46.166;3.640;2023-05-07T08:29:11;21.30;;;19.23;;
74102;SDS011;62853;46.166;3.640;2023-05-07T08:31:37;21.05;;;18.95;;
74102;SDS011;62853;46.166;3.640;2023-05-07T08:34:04;19.90;;;18.02;;
74102;SDS011;62853;46.166;3.640;2023-05-07T08:36:30;19.60;;;17.58;;
74102;SDS011;62853;46.166;3.640;2023-05-07T08:38:55;19.48;;;17.45;;
74102;SDS011;62853;46.166;3.640;2023-05-07T08:41:21;20.67;;;17.58;;
74102;SDS011;62853;46.166;3.640;2023-05-07T08:43:47;19.55;;;17.63;;
74102;SDS011;62853;46.166;3.640;2023-05-07T08:46:17;21.33;;;18.92;;
74102;SDS011;62853;46.166;3.640;2023-05-07T08:48:45;20.13;;;17.95;;
74102;SDS011;62853;46.166;3.640;2023-05-07T08:51:12;20.83;;;18.63;;
74102;SDS011;62853;46.166;3.640;2023-05-07T08:53:40;20.10;;;18.25;;
74102;SDS011;62853;46.166;3.640;2023-05-07T08:56:07;20.40;;;18.40;;
74102;SDS011;62853;46.166;3.640;2023-05-07T08:58:33;20.08;;;18.15;;
74102;SDS011;62853;46.166;3.640;2023-05-07T09:00:59;20.38;;;18.20;;
74102;SDS011;62853;46.166;3.640;2023-05-07T09:03:28;19.98;;;17.98;;
74102;SDS011;62853;46.166;3.640;2023-05-07T09:05:55;19.45;;;17.70;;
74102;SDS011;62853;46.166;3.640;2023-05-07T09:08:23;20.15;;;18.10;;
74102;SDS011;62853;46.166;3.640;2023-05-07T09:10:50;17.55;;;15.95;;
74102;SDS011;62853;46.166;3.640;2023-05-07T09:13:16;18.23;;;16.52;;
74102;SDS011;62853;46.166;3.640;2023-05-07T09:15:43;18.65;;;16.98;;
74102;SDS011;62853;46.166;3.640;2023-05-07T09:18:08;19.00;;;16.38;;
74102;SDS011;62853;46.166;3.640;2023-05-07T09:20:35;17.77;;;15.95;;
74102;SDS011;62853;46.166;3.640;2023-05-07T09:23:01;18.65;;;16.67;;
74102;SDS011;62853;46.166;3.640;2023-05-07T09:25:27;18.42;;;16.52;;
74102;SDS011;62853;46.166;3.640;2023-05-07T09:27:54;17.40;;;15.75;;
74102;SDS011;62853;46.166;3.640;2023-05-07T09:30:20;17.20;;;15.50;;
74102;SDS011;62853;46.166;3.640;2023-05-07T09:32:45;17.35;;;15.55;;
74102;SDS011;62853;46.166;3.640;2023-05-07T09:35:15;16.85;;;15.27;;
74102;SDS011;62853;46.166;3.640;2023-05-07T09:37:41;16.40;;;14.70;;
74102;SDS011;62853;46.166;3.640;2023-05-07T09:40:07;16.92;;;15.20;;
74102;SDS011;62853;46.166;3.640;2023-05-07T09:42:34;16.77;;;15.18;;
74102;SDS011;62853;46.166;3.640;2023-05-07T09:44:59;17.10;;;15.45;;
74102;SDS011;62853;46.166;3.640;2023-05-07T09:47:25;15.85;;;14.30;;
74102;SDS011;62853;46.166;3.640;2023-05-07T09:49:55;15.63;;;13.88;;
74102;SDS011;62853;46.166;3.640;2023-05-07T09:52:22;16.35;;;14.55;;
74102;SDS011;62853;46.166;3.640;2023-05-07T09:54:48;14.75;;;13.27;;
74102;SDS011;62853;46.166;3.640;2023-05-07T09:57:15;15.15;;;13.50;;
74102;SDS011;62853;46.166;3.640;2023-05-07T09:59:43;14.65;;;13.18;;
74102;SDS011;62853;46.166;3.640;2023-05-07T10:02:09;14.07;;;12.50;;
74102;SDS011;62853;46.166;3.640;2023-05-07T10:04:38;13.20;;;11.90;;
74102;SDS011;62853;46.166;3.640;2023-05-07T10:07:05;12.02;;;10.75;;
74102;SDS011;62853;46.166;3.640;2023-05-07T10:09:32;13.18;;;11.77;;
74102;SDS011;62853;46.166;3.640;2023-05-07T10:11:57;13.27;;;11.70;;
74102;SDS011;62853;46.166;3.640;2023-05-07T10:14:24;14.35;;;11.45;;
74102;SDS011;62853;46.166;3.640;2023-05-07T10:16:50;12.85;;;11.00;;
74102;SDS011;62853;46.166;3.640;2023-05-07T10:19:17;12.70;;;9.95;;
74102;SDS011;62853;46.166;3.640;2023-05-07T10:22:17;14.30;;;10.77;;
74102;SDS011;62853;46.166;3.640;2023-05-07T10:24:36;11.35;;;10.15;;
74102;SDS011;62853;46.166;3.640;2023-05-07T10:27:03;11.77;;;10.32;;
74102;SDS011;62853;46.166;3.640;2023-05-07T10:29:33;11.90;;;10.10;;
74102;SDS011;62853;46.166;3.640;2023-05-07T10:32:49;13.05;;;10.27;;
74102;SDS011;62853;46.166;3.640;2023-05-07T10:35:06;12.02;;;10.82;;
74102;SDS011;62853;46.166;3.640;2023-05-07T10:37:44;11.82;;;10.63;;
74102;SDS011;62853;46.166;3.640;2023-05-07T10:40:10;11.98;;;10.43;;
74102;SDS011;62853;46.166;3.640;2023-05-07T10:42:36;11.30;;;10.20;;
74102;SDS011;62853;46.166;3.640;2023-05-07T10:45:11;11.23;;;10.02;;
74102;SDS011;62853;46.166;3.640;2023-05-07T10:48:05;11.13;;;9.85;;
74102;SDS011;62853;46.166;3.640;2023-05-07T10:50:36;10.68;;;9.43;;
74102;SDS011;62853;46.166;3.640;2023-05-07T11:00:47;14.13;;;12.73;;
74102;SDS011;62853;46.166;3.640;2023-05-07T11:03:13;12.80;;;11.52;;
74102;SDS011;62853;46.166;3.640;2023-05-07T11:05:40;12.38;;;11.18;;
74102;SDS011;62853;46.166;3.640;2023-05-07T11:08:06;12.45;;;11.13;;
74102;SDS011;62853;46.166;3.640;2023-05-07T11:13:17;12.23;;;11.02;;
74102;SDS011;62853;46.166;3.640;2023-05-07T11:15:47;13.60;;;11.85;;
74102;SDS011;62853;46.166;3.640;2023-05-07T11:18:14;13.30;;;12.07;;
74102;SDS011;62853;46.166;3.640;2023-05-07T11:26:08;12.13;;;10.85;;
74102;SDS011;62853;46.166;3.640;2023-05-07T11:28:41;12.30;;;10.55;;
74102;SDS011;62853;46.166;3.640;2023-05-07T11:31:07;13.45;;;12.02;;
74102;SDS011;62853;46.166;3.640;2023-05-07T11:33:34;12.27;;;11.05;;
74102;SDS011;62853;46.166;3.640;2023-05-07T11:36:01;12.27;;;11.02;;
74102;SDS011;62853;46.166;3.640;2023-05-07T11:38:28;13.93;;;11.68;;
74102;SDS011;62853;46.166;3.640;2023-05-07T11:43:29;11.68;;;10.55;;
74102;SDS011;62853;46.166;3.640;2023-05-07T11:45:54;12.48;;;10.63;;
74102;SDS011;62853;46.166;3.640;2023-05-07T11:48:21;11.98;;;10.75;;
74102;SDS011;62853;46.166;3.640;2023-05-07T11:53:16;12.48;;;11.05;;
74102;SDS011;62853;46.166;3.640;2023-05-07T11:55:42;12.13;;;10.82;;
74102;SDS011;62853;46.166;3.640;2023-05-07T11:58:08;12.68;;;10.40;;
74102;SDS011;62853;46.166;3.640;2023-05-07T12:00:35;11.93;;;9.38;;
74102;SDS011;62853;46.166;3.640;2023-05-07T12:03:04;9.75;;;8.18;;
74102;SDS011;62853;46.166;3.640;2023-05-07T12:05:30;15.60;;;12.30;;
74102;SDS011;62853;46.166;3.640;2023-05-07T12:07:56;12.90;;;10.82;;
74102;SDS011;62853;46.166;3.640;2023-05-07T12:10:22;14.05;;;11.10;;
74102;SDS011;62853;46.166;3.640;2023-05-07T12:12:47;12.85;;;11.52;;
74102;SDS011;62853;46.166;3.640;2023-05-07T12:15:16;15.23;;;11.73;;
74102;SDS011;62853;46.166;3.640;2023-05-07T12:17:42;15.07;;;12.95;;
74102;SDS011;62853;46.166;3.640;2023-05-07T12:20:08;12.15;;;9.48;;
74102;SDS011;62853;46.166;3.640;2023-05-07T12:22:35;44.03;;;12.60;;
74102;SDS011;62853;46.166;3.640;2023-05-07T12:25:01;31.45;;;10.05;;
74102;SDS011;62853;46.166;3.640;2023-05-07T12:27:27;85.90;;;14.55;;
74102;SDS011;62853;46.166;3.640;2023-05-07T12:29:56;99.78;;;14.10;;
74102;SDS011;62853;46.166;3.640;2023-05-07T12:32:23;303.30;;;38.47;;
74102;SDS011;62853;46.166;3.640;2023-05-07T12:34:50;123.10;;;17.42;;
74102;SDS011;62853;46.166;3.640;2023-05-07T12:37:17;60.70;;;18.25;;
74102;SDS011;62853;46.166;3.640;2023-05-07T12:39:49;32.00;;;12.63;;
74102;SDS011;62853;46.166;3.640;2023-05-07T12:42:28;19.83;;;11.10;;
74102;SDS011;62853;46.166;3.640;2023-05-07T12:45:00;22.33;;;9.57;;
74102;SDS011;62853;46.166;3.640;2023-05-07T12:47:32;18.40;;;8.35;;
74102;SDS011;62853;46.166;3.640;2023-05-07T12:49:58;78.60;;;20.67;;
74102;SDS011;62853;46.166;3.640;2023-05-07T12:52:24;14.07;;;8.80;;
74102;SDS011;62853;46.166;3.640;2023-05-07T12:54:50;11.60;;;8.90;;
74102;SDS011;62853;46.166;3.640;2023-05-07T12:57:15;17.25;;;9.70;;
74102;SDS011;62853;46.166;3.640;2023-05-07T12:59:45;15.27;;;8.57;;
74102;SDS011;62853;46.166;3.640;2023-05-07T13:02:10;12.45;;;8.32;;
74102;SDS011;62853;46.166;3.640;2023-05-07T13:04:36;11.40;;;6.75;;
74102;SDS011;62853;46.166;3.640;2023-05-07T13:07:02;8.05;;;5.97;;
74102;SDS011;62853;46.166;3.640;2023-05-07T13:09:28;14.10;;;8.40;;
74102;SDS011;62853;46.166;3.640;2023-05-07T13:11:54;12.15;;;7.00;;
74102;SDS011;62853;46.166;3.640;2023-05-07T13:14:19;20.33;;;10.98;;
74102;SDS011;62853;46.166;3.640;2023-05-07T13:16:46;12.65;;;8.98;;
74102;SDS011;62853;46.166;3.640;2023-05-07T13:19:14;12.27;;;8.50;;
74102;SDS011;62853;46.166;3.640;2023-05-07T13:21:39;6.43;;;5.68;;
74102;SDS011;62853;46.166;3.640;2023-05-07T13:24:05;10.63;;;6.72;;
74102;SDS011;62853;46.166;3.640;2023-05-07T13:26:30;12.77;;;6.15;;
74102;SDS011;62853;46.166;3.640;2023-05-07T13:28:56;9.70;;;4.78;;
74102;SDS011;62853;46.166;3.640;2023-05-07T13:31:22;9.52;;;4.18;;
74102;SDS011;62853;46.166;3.640;2023-05-07T13:33:47;9.52;;;7.07;;
74102;SDS011;62853;46.166;3.640;2023-05-07T13:36:12;10.73;;;7.30;;
74102;SDS011;62853;46.166;3.640;2023-05-07T13:38:41;11.45;;;6.07;;
74102;SDS011;62853;46.166;3.640;2023-05-07T13:41:06;10.90;;;6.45;;
74102;SDS011;62853;46.166;3.640;2023-05-07T13:43:32;8.70;;;4.28;;
74102;SDS011;62853;46.166;3.640;2023-05-07T13:45:58;10.50;;;5.57;;
74102;SDS011;62853;46.166;3.640;2023-05-07T13:48:24;7.40;;;4.93;;
74102;SDS011;62853;46.166;3.640;2023-05-07T13:50:50;5.53;;;4.00;;
74102;SDS011;62853;46.166;3.640;2023-05-07T13:53:15;6.32;;;3.90;;
74102;SDS011;62853;46.166;3.640;2023-05-07T13:55:43;5.55;;;3.72;;
74102;SDS011;62853;46.166;3.640;2023-05-07T13:58:08;7.97;;;4.93;;
74102;SDS011;62853;46.166;3.640;2023-05-07T14:00:34;7.07;;;5.13;;
74102;SDS011;62853;46.166;3.640;2023-05-07T14:03:00;7.45;;;5.28;;
74102;SDS011;62853;46.166;3.640;2023-05-07T14:05:25;9.57;;;5.47;;
74102;SDS011;62853;46.166;3.640;2023-05-07T14:07:53;8.57;;;6.65;;
74102;SDS011;62853;46.166;3.640;2023-05-07T14:10:19;10.88;;;7.72;;
74102;SDS011;62853;46.166;3.640;2023-05-07T14:12:44;7.43;;;6.68;;
74102;SDS011;62853;46.166;3.640;2023-05-07T14:15:10;11.82;;;9.38;;
74102;SDS011;62853;46.166;3.640;2023-05-07T14:17:38;9.95;;;8.95;;
74102;SDS011;62853;46.166;3.640;2023-05-07T14:20:04;9.98;;;8.82;;
74102;SDS011;62853;46.166;3.640;2023-05-07T14:22:33;17.20;;;12.40;;
74102;SDS011;62853;46.166;3.640;2023-05-07T14:24:58;14.18;;;10.98;;
74102;SDS011;62853;46.166;3.640;2023-05-07T14:27:24;15.82;;;14.15;;
74102;SDS011;62853;46.166;3.640;2023-05-07T14:29:49;18.45;;;16.55;;
74102;SDS011;62853;46.166;3.640;2023-05-07T14:32:19;25.10;;;22.55;;
74102;SDS011;62853;46.166;3.640;2023-05-07T14:34:45;18.38;;;16.50;;
74102;SDS011;62853;46.166;3.640;2023-05-07T14:37:11;24.67;;;22.30;;
74102;SDS011;62853;46.166;3.640;2023-05-07T14:39:37;20.48;;;18.30;;
74102;SDS011;62853;46.166;3.640;2023-05-07T14:42:02;20.92;;;18.73;;